sensor_id;sensor_type;location;lat;lon;timestamp;pressure;altitude;pressure_sealevel;temperature;humidity
46778;BME280;32536;47.128;8.746;2023-07-20T00:00:37;91713.00;;;24.85;40.01
46778;BME280;32536;47.128;8.746;2023-07-20T00:03:12;91709.50;;;24.85;39.64
46778;BME280;32536;47.128;8.746;2023-07-20T00:05:46;91703.78;;;24.88;39.90
46778;BME280;32536;47.128;8.746;2023-07-20T00:08:12;91704.78;;;24.85;39.65
46778;BME280;32536;47.128;8.746;2023-07-20T00:10:40;91707.78;;;24.82;39.81
46778;BME280;32536;47.128;8.746;2023-07-20T00:13:07;91707.50;;;24.80;39.68
46778;BME280;32536;47.128;8.746;2023-07-20T00:15:35;91710.22;;;24.74;39.56
46778;BME280;32536;47.128;8.746;2023-07-20T00:18:01;91700.50;;;24.67;39.88
46778;BME280;32536;47.128;8.746;2023-07-20T00:20:28;91703.19;;;24.61;39.47
46778;BME280;32536;47.128;8.746;2023-07-20T00:22:55;91703.91;;;24.56;39.51
46778;BME280;32536;47.128;8.746;2023-07-20T00:25:24;91703.41;;;24.52;39.80
46778;BME280;32536;47.128;8.746;2023-07-20T00:27:51;91708.13;;;24.52;39.80
46778;BME280;32536;47.128;8.746;2023-07-20T00:30:18;91704.16;;;24.53;39.69
46778;BME280;32536;47.128;8.746;2023-07-20T00:32:45;91702.66;;;24.52;39.60
46778;BME280;32536;47.128;8.746;2023-07-20T00:35:11;91699.66;;;24.50;39.80
46778;BME280;32536;47.128;8.746;2023-07-20T00:37:38;91704.88;;;24.48;39.72
46778;BME280;32536;47.128;8.746;2023-07-20T00:40:06;91706.09;;;24.41;40.04
46778;BME280;32536;47.128;8.746;2023-07-20T00:42:33;91706.56;;;24.28;40.06
46778;BME280;32536;47.128;8.746;2023-07-20T00:45:00;91708.25;;;24.20;39.92
46778;BME280;32536;47.128;8.746;2023-07-20T00:47:47;91707.19;;;24.11;40.03
46778;BME280;32536;47.128;8.746;2023-07-20T00:54:22;91696.34;;;23.91;40.06
46778;BME280;32536;47.128;8.746;2023-07-20T00:56:50;91696.78;;;23.78;40.44
46778;BME280;32536;47.128;8.746;2023-07-20T00:59:18;91690.00;;;23.67;40.31
46778;BME280;32536;47.128;8.746;2023-07-20T01:01:45;91691.69;;;23.59;40.40
46778;BME280;32536;47.128;8.746;2023-07-20T01:04:12;91693.63;;;23.53;40.48
46778;BME280;32536;47.128;8.746;2023-07-20T01:06:49;91691.09;;;23.49;41.02
46778;BME280;32536;47.128;8.746;2023-07-20T01:09:24;91698.34;;;23.53;40.61
46778;BME280;32536;47.128;8.746;2023-07-20T01:12:07;91699.09;;;23.53;40.82
46778;BME280;32536;47.128;8.746;2023-07-20T01:14:38;91700.09;;;23.56;40.31
46778;BME280;32536;47.128;8.746;2023-07-20T01:17:05;91700.09;;;23.56;40.39
46778;BME280;32536;47.128;8.746;2023-07-20T01:19:32;91698.13;;;23.56;40.55
46778;BME280;32536;47.128;8.746;2023-07-20T01:27:27;91699.34;;;23.55;41.11
46778;BME280;32536;47.128;8.746;2023-07-20T01:33:36;91695.19;;;23.60;40.53
46778;BME280;32536;47.128;8.746;2023-07-20T01:36:04;91697.41;;;23.61;40.48
46778;BME280;32536;47.128;8.746;2023-07-20T01:38:31;91697.38;;;23.56;40.55
46778;BME280;32536;47.128;8.746;2023-07-20T01:40:59;91694.38;;;23.54;40.56
46778;BME280;32536;47.128;8.746;2023-07-20T01:43:25;91695.13;;;23.54;40.40
46778;BME280;32536;47.128;8.746;2023-07-20T01:45:52;91692.16;;;23.58;40.43
46778;BME280;32536;47.128;8.746;2023-07-20T01:48:19;91689.66;;;23.54;40.66
46778;BME280;32536;47.128;8.746;2023-07-20T01:50:46;91684.41;;;23.50;40.78
46778;BME280;32536;47.128;8.746;2023-07-20T01:53:12;91672.97;;;23.46;40.74
46778;BME280;32536;47.128;8.746;2023-07-20T01:55:39;91673.44;;;23.45;40.64
46778;BME280;32536;47.128;8.746;2023-07-20T01:58:06;91675.84;;;23.37;40.84
46778;BME280;32536;47.128;8.746;2023-07-20T02:00:33;91687.00;;;23.33;40.47
46778;BME280;32536;47.128;8.746;2023-07-20T02:03:00;91689.53;;;23.37;40.71
46778;BME280;32536;47.128;8.746;2023-07-20T02:05:26;91683.34;;;23.42;40.64
46778;BME280;32536;47.128;8.746;2023-07-20T02:07:53;91683.34;;;23.42;40.54
46778;BME280;32536;47.128;8.746;2023-07-20T02:10:20;91687.81;;;23.40;40.69
46778;BME280;32536;47.128;8.746;2023-07-20T02:12:46;91686.75;;;23.31;40.73
46778;BME280;32536;47.128;8.746;2023-07-20T02:15:14;91692.22;;;23.31;40.62
46778;BME280;32536;47.128;8.746;2023-07-20T02:17:42;91686.78;;;23.37;40.78
46778;BME280;32536;47.128;8.746;2023-07-20T02:20:10;91674.41;;;23.42;40.67
46778;BME280;32536;47.128;8.746;2023-07-20T02:22:38;91686.13;;;23.48;40.66
46778;BME280;32536;47.128;8.746;2023-07-20T02:25:06;91680.72;;;23.54;40.66
46778;BME280;32536;47.128;8.746;2023-07-20T02:27:34;91678.50;;;23.58;40.64
46778;BME280;32536;47.128;8.746;2023-07-20T02:30:01;91682.25;;;23.60;40.71
46778;BME280;32536;47.128;8.746;2023-07-20T02:32:29;91686.19;;;23.59;40.66
46778;BME280;32536;47.128;8.746;2023-07-20T02:34:58;91690.19;;;23.58;40.60
46778;BME280;32536;47.128;8.746;2023-07-20T02:37:25;91689.72;;;23.60;40.61
46778;BME280;32536;47.128;8.746;2023-07-20T02:39:51;91689.94;;;23.56;40.77
46778;BME280;32536;47.128;8.746;2023-07-20T02:42:18;91692.88;;;23.53;40.61
46778;BME280;32536;47.128;8.746;2023-07-20T02:44:45;91684.91;;;23.49;40.84
46778;BME280;32536;47.128;8.746;2023-07-20T02:47:12;91691.59;;;23.48;40.66
46778;BME280;32536;47.128;8.746;2023-07-20T02:49:38;91691.09;;;23.44;40.82
46778;BME280;32536;47.128;8.746;2023-07-20T02:52:05;91692.75;;;23.36;40.79
46778;BME280;32536;47.128;8.746;2023-07-20T02:54:32;91697.63;;;23.26;40.77
46778;BME280;32536;47.128;8.746;2023-07-20T02:56:59;91692.50;;;23.07;41.17
46778;BME280;32536;47.128;8.746;2023-07-20T02:59:27;91685.94;;;22.99;41.23
46778;BME280;32536;47.128;8.746;2023-07-20T03:01:54;91698.31;;;22.94;41.33
46778;BME280;32536;47.128;8.746;2023-07-20T03:04:21;91688.63;;;22.93;41.47
46778;BME280;32536;47.128;8.746;2023-07-20T03:06:49;91695.59;;;22.94;41.37
46778;BME280;32536;47.128;8.746;2023-07-20T03:09:16;91691.34;;;22.93;41.40
46778;BME280;32536;47.128;8.746;2023-07-20T03:11:43;91691.84;;;22.92;41.45
46778;BME280;32536;47.128;8.746;2023-07-20T03:14:09;91690.63;;;22.93;41.33
46778;BME280;32536;47.128;8.746;2023-07-20T03:16:36;91688.13;;;22.95;41.25
46778;BME280;32536;47.128;8.746;2023-07-20T03:19:03;91683.72;;;22.97;41.30
46778;BME280;32536;47.128;8.746;2023-07-20T03:21:30;91686.69;;;22.99;41.25
46778;BME280;32536;47.128;8.746;2023-07-20T03:23:57;91678.97;;;22.98;41.22
46778;BME280;32536;47.128;8.746;2023-07-20T03:26:23;91683.72;;;22.97;41.19
46778;BME280;32536;47.128;8.746;2023-07-20T03:28:50;91683.72;;;22.97;41.19
46778;BME280;32536;47.128;8.746;2023-07-20T03:31:17;91673.72;;;22.94;41.13
46778;BME280;32536;47.128;8.746;2023-07-20T03:33:43;91677.69;;;22.93;41.10
46778;BME280;32536;47.128;8.746;2023-07-20T03:36:10;91677.69;;;22.93;41.14
46778;BME280;32536;47.128;8.746;2023-07-20T03:38:37;91678.91;;;22.92;41.10
46778;BME280;32536;47.128;8.746;2023-07-20T03:41:04;91690.81;;;22.89;41.25
46778;BME280;32536;47.128;8.746;2023-07-20T03:43:31;91685.09;;;22.87;41.35
46778;BME280;32536;47.128;8.746;2023-07-20T03:45:58;91679.63;;;22.87;41.36
46778;BME280;32536;47.128;8.746;2023-07-20T03:48:25;91681.63;;;22.86;41.58
46778;BME280;32536;47.128;8.746;2023-07-20T03:50:53;91686.06;;;22.84;41.64
46778;BME280;32536;47.128;8.746;2023-07-20T03:53:20;91688.78;;;22.84;41.52
46778;BME280;32536;47.128;8.746;2023-07-20T03:55:49;91686.28;;;22.80;41.59
46778;BME280;32536;47.128;8.746;2023-07-20T03:58:18;91689.22;;;22.77;41.61
46778;BME280;32536;47.128;8.746;2023-07-20T04:00:46;91693.38;;;22.72;41.56
46778;BME280;32536;47.128;8.746;2023-07-20T04:03:16;91688.13;;;22.68;42.05
46778;BME280;32536;47.128;8.746;2023-07-20T04:05:44;91688.56;;;22.61;41.90
46778;BME280;32536;47.128;8.746;2023-07-20T04:08:11;91684.81;;;22.59;42.06
46778;BME280;32536;47.128;8.746;2023-07-20T04:10:38;91685.28;;;22.57;42.07
46778;BME280;32536;47.128;8.746;2023-07-20T04:13:05;91693.19;;;22.55;42.16
46778;BME280;32536;47.128;8.746;2023-07-20T04:15:32;91700.38;;;22.52;42.24
46778;BME280;32536;47.128;8.746;2023-07-20T04:17:59;91689.38;;;22.47;42.55
46778;BME280;32536;47.128;8.746;2023-07-20T04:20:26;91692.25;;;22.37;42.83
46778;BME280;32536;47.128;8.746;2023-07-20T04:22:53;91694.06;;;22.26;42.91
46778;BME280;32536;47.128;8.746;2023-07-20T04:25:20;91692.25;;;22.17;42.60
46778;BME280;32536;47.128;8.746;2023-07-20T04:27:46;91687.72;;;22.14;42.48
46778;BME280;32536;47.128;8.746;2023-07-20T04:30:13;91683.78;;;22.15;42.28
46778;BME280;32536;47.128;8.746;2023-07-20T04:32:42;91702.13;;;22.14;42.62
46778;BME280;32536;47.128;8.746;2023-07-20T04:38:15;91697.91;;;22.13;43.05
46778;BME280;32536;47.128;8.746;2023-07-20T04:40:47;91702.25;;;22.05;43.78
46778;BME280;32536;47.128;8.746;2023-07-20T04:43:15;91707.63;;;21.99;43.22
46778;BME280;32536;47.128;8.746;2023-07-20T04:45:42;91704.34;;;21.95;43.12
46778;BME280;32536;47.128;8.746;2023-07-20T04:48:10;91702.56;;;21.92;42.97
46778;BME280;32536;47.128;8.746;2023-07-20T04:50:42;91701.34;;;21.93;42.91
46778;BME280;32536;47.128;8.746;2023-07-20T04:53:11;91695.16;;;21.93;43.13
46778;BME280;32536;47.128;8.746;2023-07-20T04:55:39;91705.50;;;21.88;43.35
46778;BME280;32536;47.128;8.746;2023-07-20T04:58:06;91705.69;;;21.85;43.43
46778;BME280;32536;47.128;8.746;2023-07-20T05:00:34;91699.41;;;21.79;43.85
46778;BME280;32536;47.128;8.746;2023-07-20T05:03:01;91699.59;;;21.75;43.71
46778;BME280;32536;47.128;8.746;2023-07-20T05:05:27;91700.09;;;21.73;43.61
46778;BME280;32536;47.128;8.746;2023-07-20T05:07:54;91695.41;;;21.74;43.74
46778;BME280;32536;47.128;8.746;2023-07-20T05:10:21;91701.97;;;21.67;43.73
46778;BME280;32536;47.128;8.746;2023-07-20T05:12:48;91703.50;;;21.68;43.54
46778;BME280;32536;47.128;8.746;2023-07-20T05:15:15;91692.09;;;21.70;43.69
46778;BME280;32536;47.128;8.746;2023-07-20T05:17:42;91690.19;;;21.76;43.50
46778;BME280;32536;47.128;8.746;2023-07-20T05:20:09;91692.72;;;21.80;43.68
46778;BME280;32536;47.128;8.746;2023-07-20T05:22:36;91691.31;;;21.84;43.54
46778;BME280;32536;47.128;8.746;2023-07-20T05:25:07;91690.28;;;21.82;43.59
46778;BME280;32536;47.128;8.746;2023-07-20T05:27:36;91697.69;;;21.81;44.06
46778;BME280;32536;47.128;8.746;2023-07-20T05:30:06;91693.69;;;21.77;44.35
46778;BME280;32536;47.128;8.746;2023-07-20T05:32:33;91693.88;;;21.73;44.04
46778;BME280;32536;47.128;8.746;2023-07-20T05:35:00;91694.09;;;21.69;43.83
46778;BME280;32536;47.128;8.746;2023-07-20T05:37:27;91694.28;;;21.66;43.95
46778;BME280;32536;47.128;8.746;2023-07-20T05:39:54;91687.31;;;21.65;43.95
46778;BME280;32536;47.128;8.746;2023-07-20T05:42:21;91695.88;;;21.57;44.46
46778;BME280;32536;47.128;8.746;2023-07-20T05:44:47;91686.22;;;21.56;43.94
46778;BME280;32536;47.128;8.746;2023-07-20T05:47:15;91691.94;;;21.58;44.63
46778;BME280;32536;47.128;8.746;2023-07-20T05:49:42;91688.34;;;21.52;44.60
46778;BME280;32536;47.128;8.746;2023-07-20T05:52:09;91686.66;;;21.55;44.22
46778;BME280;32536;47.128;8.746;2023-07-20T05:54:35;91689.22;;;21.58;44.32
46778;BME280;32536;47.128;8.746;2023-07-20T05:57:02;91686.09;;;21.66;44.28
46778;BME280;32536;47.128;8.746;2023-07-20T05:59:29;91685.16;;;21.69;44.18
46778;BME280;32536;47.128;8.746;2023-07-20T06:01:56;91686.66;;;21.70;44.42
46778;BME280;32536;47.128;8.746;2023-07-20T06:04:23;91689.47;;;21.75;44.28
46778;BME280;32536;47.128;8.746;2023-07-20T06:06:49;91681.28;;;21.75;44.43
46778;BME280;32536;47.128;8.746;2023-07-20T06:09:16;91685.03;;;21.78;44.30
46778;BME280;32536;47.128;8.746;2023-07-20T06:11:43;91686.06;;;21.81;44.47
46778;BME280;32536;47.128;8.746;2023-07-20T06:14:09;91689.59;;;21.87;44.17
46778;BME280;32536;47.128;8.746;2023-07-20T06:16:36;91682.53;;;21.95;44.07
46778;BME280;32536;47.128;8.746;2023-07-20T06:19:03;91682.88;;;22.03;43.85
46778;BME280;32536;47.128;8.746;2023-07-20T06:21:30;91686.91;;;22.07;43.90
46778;BME280;32536;47.128;8.746;2023-07-20T06:23:56;91683.50;;;22.13;43.72
46778;BME280;32536;47.128;8.746;2023-07-20T06:26:24;91683.28;;;22.16;43.79
46778;BME280;32536;47.128;8.746;2023-07-20T06:28:51;91675.19;;;22.22;43.87
46778;BME280;32536;47.128;8.746;2023-07-20T06:31:17;91680.47;;;22.31;43.82
46778;BME280;32536;47.128;8.746;2023-07-20T06:33:53;91675.09;;;22.37;43.74
46778;BME280;32536;47.128;8.746;2023-07-20T06:36:20;91673.50;;;22.45;43.40
46778;BME280;32536;47.128;8.746;2023-07-20T06:38:46;91673.06;;;22.52;43.58
46778;BME280;32536;47.128;8.746;2023-07-20T06:41:13;91682.81;;;22.59;43.53
46778;BME280;32536;47.128;8.746;2023-07-20T06:43:40;91681.16;;;22.67;43.45
46778;BME280;32536;47.128;8.746;2023-07-20T06:46:06;91686.41;;;22.71;43.53
46778;BME280;32536;47.128;8.746;2023-07-20T06:48:33;91678.97;;;22.71;43.52
46778;BME280;32536;47.128;8.746;2023-07-20T06:51:00;91680.75;;;22.75;43.62
46778;BME280;32536;47.128;8.746;2023-07-20T06:53:26;91677.81;;;22.78;43.74
46778;BME280;32536;47.128;8.746;2023-07-20T06:55:53;91672.34;;;22.78;43.68
46778;BME280;32536;47.128;8.746;2023-07-20T06:58:20;91676.56;;;22.79;43.90
46778;BME280;32536;47.128;8.746;2023-07-20T07:00:47;91677.81;;;22.78;43.81
46778;BME280;32536;47.128;8.746;2023-07-20T07:03:14;91678.09;;;22.80;43.81
46778;BME280;32536;47.128;8.746;2023-07-20T07:05:43;91674.34;;;22.78;43.80
46778;BME280;32536;47.128;8.746;2023-07-20T07:08:12;91677.06;;;22.78;43.70
46778;BME280;32536;47.128;8.746;2023-07-20T07:10:39;91674.59;;;22.80;43.97
46778;BME280;32536;47.128;8.746;2023-07-20T07:13:06;91672.88;;;22.82;43.86
46778;BME280;32536;47.128;8.746;2023-07-20T07:15:33;91678.53;;;22.79;43.90
46778;BME280;32536;47.128;8.746;2023-07-20T07:18:00;91678.22;;;22.71;44.00
46778;BME280;32536;47.128;8.746;2023-07-20T07:20:29;91676.00;;;22.69;44.00
46778;BME280;32536;47.128;8.746;2023-07-20T07:22:56;91673.78;;;22.74;44.02
46778;BME280;32536;47.128;8.746;2023-07-20T07:25:23;91669.13;;;22.80;43.95
46778;BME280;32536;47.128;8.746;2023-07-20T07:27:50;91673.66;;;22.89;44.10
46778;BME280;32536;47.128;8.746;2023-07-20T07:30:18;91674.25;;;22.98;43.43
46778;BME280;32536;47.128;8.746;2023-07-20T07:32:45;91677.06;;;23.04;43.53
46778;BME280;32536;47.128;8.746;2023-07-20T07:35:12;91672.81;;;23.03;43.67
46778;BME280;32536;47.128;8.746;2023-07-20T07:37:39;91673.81;;;23.06;43.71
46778;BME280;32536;47.128;8.746;2023-07-20T07:40:06;91667.91;;;23.07;43.75
46778;BME280;32536;47.128;8.746;2023-07-20T07:42:34;91672.38;;;23.10;43.85
46778;BME280;32536;47.128;8.746;2023-07-20T07:45:00;91668.91;;;23.10;43.90
46778;BME280;32536;47.128;8.746;2023-07-20T07:47:27;91666.44;;;23.12;43.85
46778;BME280;32536;47.128;8.746;2023-07-20T07:49:54;91662.47;;;23.13;43.78
46778;BME280;32536;47.128;8.746;2023-07-20T07:52:21;91670.66;;;23.13;43.68
46778;BME280;32536;47.128;8.746;2023-07-20T07:54:47;91659.00;;;23.12;43.79
46778;BME280;32536;47.128;8.746;2023-07-20T07:57:14;91666.44;;;23.12;43.76
46778;BME280;32536;47.128;8.746;2023-07-20T07:59:41;91666.44;;;23.12;43.83
46778;BME280;32536;47.128;8.746;2023-07-20T08:02:08;91670.94;;;23.15;43.79
46778;BME280;32536;47.128;8.746;2023-07-20T08:04:34;91665.97;;;23.13;43.62
46778;BME280;32536;47.128;8.746;2023-07-20T08:09:38;91667.91;;;23.07;43.66
46778;BME280;32536;47.128;8.746;2023-07-20T08:12:05;91665.59;;;23.00;43.63
46778;BME280;32536;47.128;8.746;2023-07-20T08:14:32;91662.09;;;22.99;43.77
46778;BME280;32536;47.128;8.746;2023-07-20T08:16:59;91659.91;;;23.03;43.63
46778;BME280;32536;47.128;8.746;2023-07-20T08:19:25;91661.19;;;23.08;43.65
46778;BME280;32536;47.128;8.746;2023-07-20T08:21:52;91652.56;;;23.15;43.50
46778;BME280;32536;47.128;8.746;2023-07-20T08:24:19;91658.63;;;23.25;43.39
46778;BME280;32536;47.128;8.746;2023-07-20T08:26:45;91661.41;;;23.31;43.43
46778;BME280;32536;47.128;8.746;2023-07-20T08:29:12;91658.19;;;23.32;43.34
46778;BME280;32536;47.128;8.746;2023-07-20T08:31:39;91662.16;;;23.31;43.43
46778;BME280;32536;47.128;8.746;2023-07-20T08:34:05;91663.41;;;23.36;43.38
46778;BME280;32536;47.128;8.746;2023-07-20T08:36:32;91658.50;;;23.40;43.37
46778;BME280;32536;47.128;8.746;2023-07-20T08:38:59;91660.25;;;23.43;43.35
46778;BME280;32536;47.128;8.746;2023-07-20T08:41:26;91662.47;;;23.39;43.12
46778;BME280;32536;47.128;8.746;2023-07-20T08:43:54;91662.69;;;23.36;43.50
46778;BME280;32536;47.128;8.746;2023-07-20T08:46:23;91660.38;;;23.28;43.54
46778;BME280;32536;47.128;8.746;2023-07-20T08:48:52;91656.16;;;23.27;43.65
46778;BME280;32536;47.128;8.746;2023-07-20T08:51:19;91661.63;;;23.27;43.75
46778;BME280;32536;47.128;8.746;2023-07-20T08:53:47;91656.91;;;23.28;43.74
46778;BME280;32536;47.128;8.746;2023-07-20T08:56:17;91665.63;;;23.32;43.79
46778;BME280;32536;47.128;8.746;2023-07-20T08:58:47;91659.44;;;23.31;43.81
46778;BME280;32536;47.128;8.746;2023-07-20T09:01:14;91659.47;;;23.37;43.78
46778;BME280;32536;47.128;8.746;2023-07-20T09:03:42;91656.28;;;23.44;43.76
46778;BME280;32536;47.128;8.746;2023-07-20T09:06:15;91646.69;;;23.55;43.45
46778;BME280;32536;47.128;8.746;2023-07-20T09:08:42;91658.63;;;23.57;43.71
46778;BME280;32536;47.128;8.746;2023-07-20T09:11:11;91652.69;;;23.64;43.75
46778;BME280;32536;47.128;8.746;2023-07-20T09:13:41;91654.25;;;23.77;43.59
46778;BME280;32536;47.128;8.746;2023-07-20T09:16:09;91654.59;;;23.90;43.57
46778;BME280;32536;47.128;8.746;2023-07-20T09:18:41;91652.16;;;23.98;43.37
46778;BME280;32536;47.128;8.746;2023-07-20T09:21:08;91650.66;;;23.97;43.18
46778;BME280;32536;47.128;8.746;2023-07-20T09:23:36;91642.94;;;23.95;43.00
46778;BME280;32536;47.128;8.746;2023-07-20T09:26:14;91647.19;;;24.02;43.18
46778;BME280;32536;47.128;8.746;2023-07-20T09:29:07;91641.75;;;24.08;42.29
46778;BME280;32536;47.128;8.746;2023-07-20T09:31:35;91640.06;;;24.16;42.87
46778;BME280;32536;47.128;8.746;2023-07-20T09:34:04;91638.59;;;24.21;42.83
46778;BME280;32536;47.128;8.746;2023-07-20T09:36:35;91637.84;;;24.26;42.61
46778;BME280;32536;47.128;8.746;2023-07-20T09:39:04;91631.66;;;24.31;42.49
46778;BME280;32536;47.128;8.746;2023-07-20T09:41:39;91632.41;;;24.32;42.38
46778;BME280;32536;47.128;8.746;2023-07-20T09:44:08;91639.13;;;24.36;42.14
46778;BME280;32536;47.128;8.746;2023-07-20T09:46:49;91641.63;;;24.34;41.97
46778;BME280;32536;47.128;8.746;2023-07-20T09:49:17;91631.66;;;24.37;42.50
46778;BME280;32536;47.128;8.746;2023-07-20T09:51:45;91634.19;;;24.40;42.24
46778;BME280;32536;47.128;8.746;2023-07-20T09:54:13;91640.66;;;24.43;42.31
46778;BME280;32536;47.128;8.746;2023-07-20T09:56:42;91638.41;;;24.41;42.33
46778;BME280;32536;47.128;8.746;2023-07-20T09:59:08;91639.38;;;24.38;42.33
46778;BME280;32536;47.128;8.746;2023-07-20T10:01:36;91640.38;;;24.35;42.11
46778;BME280;32536;47.128;8.746;2023-07-20T10:04:09;91639.63;;;24.35;42.11
46778;BME280;32536;47.128;8.746;2023-07-20T10:06:42;91630.66;;;24.34;41.94
46778;BME280;32536;47.128;8.746;2023-07-20T10:09:10;91621.22;;;24.35;42.04
46778;BME280;32536;47.128;8.746;2023-07-20T10:11:50;91616.22;;;24.34;42.51
46778;BME280;32536;47.128;8.746;2023-07-20T10:14:20;91626.66;;;24.29;42.22
46778;BME280;32536;47.128;8.746;2023-07-20T10:16:50;91623.16;;;24.29;42.22
46778;BME280;32536;47.128;8.746;2023-07-20T10:19:31;91611.94;;;24.21;41.60
46778;BME280;32536;47.128;8.746;2023-07-20T10:22:11;91616.69;;;24.21;42.21
46778;BME280;32536;47.128;8.746;2023-07-20T10:24:46;91619.19;;;24.24;42.14
46778;BME280;32536;47.128;8.746;2023-07-20T10:27:14;91614.22;;;24.28;42.53
46778;BME280;32536;47.128;8.746;2023-07-20T10:29:42;91614.22;;;24.28;42.25
46778;BME280;32536;47.128;8.746;2023-07-20T10:32:09;91612.22;;;24.29;42.23
46778;BME280;32536;47.128;8.746;2023-07-20T10:34:36;91605.28;;;24.28;42.24
46778;BME280;32536;47.128;8.746;2023-07-20T10:37:03;91610.50;;;24.32;42.58
46778;BME280;32536;47.128;8.746;2023-07-20T10:39:33;91605.53;;;24.36;42.11
46778;BME280;32536;47.128;8.746;2023-07-20T10:42:06;91598.31;;;24.38;42.38
46778;BME280;32536;47.128;8.746;2023-07-20T10:44:33;91603.56;;;24.42;42.21
46778;BME280;32536;47.128;8.746;2023-07-20T10:47:09;91605.06;;;24.43;42.08
46778;BME280;32536;47.128;8.746;2023-07-20T10:49:59;91595.34;;;24.42;42.33
46778;BME280;32536;47.128;8.746;2023-07-20T10:52:36;91596.09;;;24.37;42.13
46778;BME280;32536;47.128;8.746;2023-07-20T10:55:16;91596.78;;;24.26;42.35
46778;BME280;32536;47.128;8.746;2023-07-20T10:57:43;91590.81;;;24.22;42.30
46778;BME280;32536;47.128;8.746;2023-07-20T11:00:13;91593.56;;;24.22;42.26
46778;BME280;32536;47.128;8.746;2023-07-20T11:02:45;91580.63;;;24.22;42.53
46778;BME280;32536;47.128;8.746;2023-07-20T11:05:33;91587.34;;;24.27;42.32
46778;BME280;32536;47.128;8.746;2023-07-20T11:08:10;91573.66;;;24.27;42.29
46778;BME280;32536;47.128;8.746;2023-07-20T11:10:38;91579.13;;;24.21;42.41
46778;BME280;32536;47.128;8.746;2023-07-20T11:13:18;91565.16;;;24.19;42.59
46778;BME280;32536;47.128;8.746;2023-07-20T11:15:46;91567.69;;;24.28;42.57
46778;BME280;32536;47.128;8.746;2023-07-20T11:18:20;91579.66;;;24.37;42.52
46778;BME280;32536;47.128;8.746;2023-07-20T11:20:50;91567.72;;;24.45;42.12
46778;BME280;32536;47.128;8.746;2023-07-20T11:23:17;91572.97;;;24.55;42.29
46778;BME280;32536;47.128;8.746;2023-07-20T11:25:45;91567.50;;;24.60;42.43
46778;BME280;32536;47.128;8.746;2023-07-20T11:28:12;91567.25;;;24.64;41.83
46778;BME280;32536;47.128;8.746;2023-07-20T11:30:39;91566.75;;;24.60;42.00
46778;BME280;32536;47.128;8.746;2023-07-20T11:33:08;91562.25;;;24.57;42.33
46778;BME280;32536;47.128;8.746;2023-07-20T11:35:43;91561.25;;;24.54;42.42
46778;BME280;32536;47.128;8.746;2023-07-20T11:38:13;91565.00;;;24.62;42.38
46778;BME280;32536;47.128;8.746;2023-07-20T11:40:46;91568.28;;;24.67;42.56
46778;BME280;32536;47.128;8.746;2023-07-20T11:43:13;91570.53;;;24.68;42.21
46778;BME280;32536;47.128;8.746;2023-07-20T11:45:40;91564.50;;;24.64;42.34
46778;BME280;32536;47.128;8.746;2023-07-20T11:48:14;91559.03;;;24.58;42.30
46778;BME280;32536;47.128;8.746;2023-07-20T11:50:41;91555.53;;;24.52;42.05
46778;BME280;32536;47.128;8.746;2023-07-20T11:53:08;91558.53;;;24.49;42.21
46778;BME280;32536;47.128;8.746;2023-07-20T11:55:35;91557.03;;;24.48;42.22
46778;BME280;32536;47.128;8.746;2023-07-20T11:58:06;91551.53;;;24.42;42.35
46778;BME280;32536;47.128;8.746;2023-07-20T12:00:36;91546.81;;;24.37;42.42
46778;BME280;32536;47.128;8.746;2023-07-20T12:03:05;91545.81;;;24.34;42.29
46778;BME280;32536;47.128;8.746;2023-07-20T12:05:33;91541.31;;;24.31;42.62
46778;BME280;32536;47.128;8.746;2023-07-20T12:08:00;91546.56;;;24.35;42.55
46778;BME280;32536;47.128;8.746;2023-07-20T12:10:28;91538.13;;;24.44;42.42
46778;BME280;32536;47.128;8.746;2023-07-20T12:13:01;91539.84;;;24.53;42.44
46778;BME280;32536;47.128;8.746;2023-07-20T12:15:32;91527.66;;;24.59;42.47
46778;BME280;32536;47.128;8.746;2023-07-20T12:18:01;91529.94;;;24.67;42.25
46778;BME280;32536;47.128;8.746;2023-07-20T12:20:32;91540.66;;;24.76;42.18
46778;BME280;32536;47.128;8.746;2023-07-20T12:23:04;91532.94;;;24.91;42.25
46778;BME280;32536;47.128;8.746;2023-07-20T12:25:43;91529.94;;;25.01;41.84
46778;BME280;32536;47.128;8.746;2023-07-20T12:28:13;91531.91;;;25.12;42.26
46778;BME280;32536;47.128;8.746;2023-07-20T12:30:43;91525.66;;;25.22;41.90
46778;BME280;32536;47.128;8.746;2023-07-20T12:33:10;91525.16;;;25.30;41.98
46778;BME280;32536;47.128;8.746;2023-07-20T12:35:40;91523.41;;;25.32;42.00
46778;BME280;32536;47.128;8.746;2023-07-20T12:38:06;91525.94;;;25.24;41.77
46778;BME280;32536;47.128;8.746;2023-07-20T12:40:34;91520.94;;;25.12;41.52
46778;BME280;32536;47.128;8.746;2023-07-20T12:43:02;91516.00;;;24.99;41.63
46778;BME280;32536;47.128;8.746;2023-07-20T12:45:30;91515.47;;;24.89;42.08
46778;BME280;32536;47.128;8.746;2023-07-20T12:47:57;91514.50;;;24.81;41.82
46778;BME280;32536;47.128;8.746;2023-07-20T12:50:23;91509.03;;;24.75;41.97
46778;BME280;32536;47.128;8.746;2023-07-20T12:52:50;91510.25;;;24.74;42.13
46778;BME280;32536;47.128;8.746;2023-07-20T12:55:17;91507.78;;;24.70;42.08
46778;BME280;32536;47.128;8.746;2023-07-20T12:57:46;91516.25;;;24.67;42.09
46778;BME280;32536;47.128;8.746;2023-07-20T13:00:14;91504.31;;;24.70;41.92
46778;BME280;32536;47.128;8.746;2023-07-20T13:02:41;91500.31;;;24.71;42.18
46778;BME280;32536;47.128;8.746;2023-07-20T13:05:09;91499.81;;;24.72;42.13
46778;BME280;32536;47.128;8.746;2023-07-20T13:07:39;91498.31;;;24.77;42.06
46778;BME280;32536;47.128;8.746;2023-07-20T13:10:07;91502.06;;;24.85;41.87
46778;BME280;32536;47.128;8.746;2023-07-20T13:12:36;91492.31;;;24.90;42.12
46778;BME280;32536;47.128;8.746;2023-07-20T13:15:05;91496.31;;;24.94;42.10
46778;BME280;32536;47.128;8.746;2023-07-20T13:17:34;91491.34;;;24.99;42.03
46778;BME280;32536;47.128;8.746;2023-07-20T13:20:02;91493.28;;;25.09;42.08
46778;BME280;32536;47.128;8.746;2023-07-20T13:22:33;91490.03;;;25.17;41.56
46778;BME280;32536;47.128;8.746;2023-07-20T13:25:00;91489.31;;;25.22;41.87